This is the latest recevied weather packets stored in our database for station/object KO4IDC-13. If no packets are shown the sender has not sent any weather packets the latest 1 day(s).
| Time | Temp. | Humidity | Pressure | Rain* | Wind** | Luminosity | Snow |
|---|---|---|---|---|---|---|---|
| 1778090476 | 15.56° C | 55% | 1017.1 hPa | 0 mm | - | 580 W/m² | - |
| 1778088658 | 15.56° C | 59% | 1016.6 hPa | 0 mm | - | 707 W/m² | - |
| 1778087749 | 15° C | 59% | 1017.1 hPa | 0 mm | - | 829 W/m² | - |
| 1778085927 | 14.44° C | 63% | 1017.5 hPa | 0 mm | - | 432 W/m² | - |
| 1778085320 | 14.44° C | 67% | 1017.4 hPa | 0 mm | - | 375 W/m² | - |
| 1778084107 | 15° C | 66% | 1017.1 hPa | 0 mm | - | 434 W/m² | - |
| 1778081480 | 12.78° C | 77% | 1017.4 hPa | 0 mm | - | 354 W/m² | - |
| 1778081177 | 12.78° C | 77% | 1017.6 hPa | 0 mm | - | 308 W/m² | - |
| 1778079360 | 12.78° C | 76% | 1017.3 hPa | 0 mm | - | 291 W/m² | - |
| 1778078451 | 12.78° C | 76% | 1016.7 hPa | 0 mm | - | 402 W/m² | - |
| 1778078149 | 12.78° C | 78% | 1016.3 hPa | 0 mm | - | 453 W/m² | - |
| 1778077847 | 12.22° C | 78% | 1016.3 hPa | 0 mm | - | 327 W/m² | - |
| 1778076638 | 11.67° C | 82% | 1016 hPa | 0 mm | - | 193 W/m² | - |
| 1778075425 | 11.67° C | 83% | 1015.9 hPa | 0 mm | - | 239 W/m² | - |
| 1778074818 | 10.56° C | 86% | 1015.9 hPa | 0 mm | - | 263 W/m² | - |
| 1778074212 | 10.56° C | 87% | 1016.1 hPa | 0 mm | - | 164 W/m² | - |
| 1778073000 | 10° C | 87% | 1015.7 hPa | 0 mm | - | 61 W/m² | - |
| 1778071790 | 10° C | 89% | 1015.6 hPa | 0 mm | - | 158 W/m² | - |
| 1778069672 | 8.89° C | 95% | 1015.6 hPa | 0 mm | - | 88 W/m² | - |
| 1778068160 | 8.33° C | 96% | 1015 hPa | 0 mm | - | 43 W/m² | - |
| 1778067857 | 8.33° C | 96% | 1014.8 hPa | 0 mm | - | 38 W/m² | - |
| 1778067556 | 8.33° C | 96% | 1015 hPa | 0 mm | - | 33 W/m² | - |
| 1778067253 | 7.78° C | 96% | 1014.8 hPa | 0 mm | - | 33 W/m² | - |
| 1778066344 | 7.78° C | 96% | 1014.8 hPa | 0 mm | - | 20 W/m² | - |
| 1778066042 | 7.78° C | 96% | 1014.3 hPa | 0 mm | - | 17 W/m² | - |
* Rain latest hour (hover to see other rain measurements)
** Current wind speed in m/s (hover to see current wind gust speed)